createdAt,value
2018-06-28T00:01:41.085Z,2.17
2018-06-28T00:04:09.648Z,1.60
2018-06-28T00:06:38.229Z,1.83
2018-06-28T00:09:08.751Z,1.60
2018-06-28T00:11:37.601Z,2.00
2018-06-28T00:14:06.492Z,1.70
2018-06-28T00:16:35.950Z,1.87
2018-06-28T00:19:05.078Z,1.80
2018-06-28T00:21:33.716Z,1.80
2018-06-28T00:24:02.602Z,1.70
2018-06-28T00:26:31.544Z,1.70
2018-06-28T00:29:00.438Z,2.20
2018-06-28T00:31:29.044Z,1.80
2018-06-28T00:33:57.897Z,2.00
2018-06-28T00:36:26.492Z,1.70
2018-06-28T00:38:55.388Z,2.00
2018-06-28T00:41:23.896Z,2.10
2018-06-28T00:43:52.454Z,1.83
2018-06-28T00:46:20.971Z,2.10
2018-06-28T00:48:49.558Z,2.10
2018-06-28T00:51:18.116Z,2.13
2018-06-28T00:53:46.643Z,2.00
2018-06-28T00:56:15.620Z,2.13
2018-06-28T00:58:44.498Z,2.07
2018-06-28T01:01:14.598Z,2.00
2018-06-28T01:03:43.633Z,2.23
2018-06-28T01:06:12.475Z,2.10
2018-06-28T01:08:41.400Z,2.30
2018-06-28T01:11:10.363Z,2.20
2018-06-28T01:13:39.265Z,2.00
2018-06-28T01:16:08.176Z,2.10
2018-06-28T01:18:37.067Z,1.93
2018-06-28T01:21:05.996Z,2.23
2018-06-28T01:23:34.905Z,1.80
2018-06-28T01:26:03.766Z,2.00
2018-06-28T01:28:32.636Z,2.20
2018-06-28T01:31:01.536Z,2.10
2018-06-28T01:33:30.416Z,2.10
2018-06-28T01:35:59.263Z,2.17
2018-06-28T01:38:28.126Z,1.90
2018-06-28T01:40:56.791Z,1.90
2018-06-28T01:43:41.460Z,1.87
2018-06-28T01:46:10.309Z,2.20
2018-06-28T01:48:38.926Z,2.00
2018-06-28T01:51:07.636Z,1.90
2018-06-28T01:53:36.191Z,2.00
2018-06-28T01:56:04.957Z,2.00
2018-06-28T01:58:33.535Z,2.20
2018-06-28T02:01:02.214Z,2.10
2018-06-28T02:03:30.790Z,2.10
2018-06-28T02:05:59.366Z,2.20
2018-06-28T02:08:27.880Z,2.03
2018-06-28T02:10:56.629Z,2.30
2018-06-28T02:13:25.488Z,1.97
2018-06-28T02:15:54.098Z,2.00
2018-06-28T02:18:22.972Z,2.13
2018-06-28T02:20:51.608Z,2.10
2018-06-28T02:23:20.139Z,1.90
2018-06-28T02:25:48.695Z,2.33
2018-06-28T02:28:17.238Z,2.00
2018-06-28T02:30:46.009Z,2.20
2018-06-28T02:33:14.873Z,2.37
2018-06-28T02:35:43.491Z,2.10
2018-06-28T02:38:12.348Z,2.30
2018-06-28T02:40:40.843Z,2.20
2018-06-28T02:43:09.402Z,2.70
2018-06-28T02:45:37.954Z,2.20
2018-06-28T02:48:06.475Z,2.40
2018-06-28T02:50:35.258Z,2.43
2018-06-28T02:53:03.884Z,2.30
2018-06-28T02:55:32.767Z,2.47
2018-06-28T02:58:01.631Z,2.40
2018-06-28T03:00:30.269Z,2.20
2018-06-28T03:02:58.843Z,2.33
2018-06-28T03:05:27.436Z,2.53
2018-06-28T03:07:55.949Z,2.07
2018-06-28T03:10:24.414Z,2.03
2018-06-28T03:12:53.303Z,2.40
2018-06-28T03:15:22.293Z,2.20
2018-06-28T03:17:51.204Z,2.20
2018-06-28T03:20:20.124Z,2.00
2018-06-28T03:22:49.003Z,2.20
2018-06-28T03:25:17.950Z,1.97
2018-06-28T03:27:46.916Z,2.27
2018-06-28T03:30:15.783Z,2.40
2018-06-28T03:32:44.729Z,2.27
2018-06-28T03:35:13.601Z,2.20
2018-06-28T03:37:42.590Z,2.40
2018-06-28T03:40:11.259Z,2.23
2018-06-28T03:42:39.811Z,2.40
2018-06-28T03:45:08.409Z,2.30
2018-06-28T03:47:36.943Z,2.60
2018-06-28T03:50:05.609Z,2.40
2018-06-28T03:52:34.179Z,2.20
2018-06-28T03:55:02.796Z,2.20
2018-06-28T03:57:31.527Z,2.60
2018-06-28T04:00:00.263Z,2.67
2018-06-28T04:02:29.254Z,2.70
2018-06-28T04:04:58.124Z,3.10
2018-06-28T04:07:26.978Z,3.30
2018-06-28T04:09:55.826Z,3.37
2018-06-28T04:12:24.664Z,3.00
2018-06-28T04:14:53.561Z,2.60
2018-06-28T04:17:22.416Z,2.80
2018-06-28T04:19:50.990Z,3.03
2018-06-28T04:22:24.989Z,2.50
2018-06-28T04:24:53.849Z,2.53
2018-06-28T04:27:22.811Z,2.60
2018-06-28T04:29:51.376Z,2.50
2018-06-28T04:32:19.988Z,2.90
2018-06-28T04:34:48.516Z,2.70
2018-06-28T04:37:17.084Z,2.70
2018-06-28T04:39:45.827Z,2.37
2018-06-28T04:42:14.768Z,2.60
2018-06-28T04:44:43.616Z,2.47
2018-06-28T04:47:12.446Z,2.50
2018-06-28T04:49:41.321Z,2.50
2018-06-28T04:52:10.168Z,2.53
2018-06-28T04:54:39.006Z,2.50
2018-06-28T04:57:08.019Z,2.63
2018-06-28T04:59:36.936Z,2.87
2018-06-28T05:02:05.663Z,2.63
2018-06-28T05:04:34.725Z,2.70
2018-06-28T05:07:03.758Z,2.67
2018-06-28T05:09:32.611Z,2.70
2018-06-28T05:12:01.522Z,2.57
2018-06-28T05:14:30.633Z,2.70
2018-06-28T05:16:59.516Z,2.60
2018-06-28T05:19:28.448Z,2.80
2018-06-28T05:21:57.474Z,2.80
2018-06-28T05:24:26.534Z,3.40
2018-06-28T05:26:55.450Z,3.27
2018-06-28T05:29:24.112Z,3.00
2018-06-28T05:31:53.216Z,2.70
2018-06-28T05:34:21.783Z,3.30
2018-06-28T05:36:50.383Z,3.20
2018-06-28T05:39:18.957Z,3.30
2018-06-28T05:41:47.559Z,3.10
2018-06-28T05:44:16.108Z,3.33
2018-06-28T05:46:44.654Z,3.27
2018-06-28T05:49:13.518Z,3.10
2018-06-28T05:51:42.447Z,3.23
2018-06-28T05:54:11.390Z,3.70
2018-06-28T05:56:40.271Z,3.23
2018-06-28T05:59:08.948Z,3.20
2018-06-28T06:01:37.417Z,2.90
2018-06-28T06:04:06.044Z,2.90
2018-06-28T06:06:34.671Z,3.20
2018-06-28T06:09:03.956Z,2.67
2018-06-28T06:11:32.544Z,2.83
2018-06-28T06:14:01.219Z,3.00
2018-06-28T06:16:29.798Z,3.30
2018-06-28T06:18:58.602Z,2.80
2018-06-28T06:21:27.571Z,3.20
2018-06-28T06:23:56.410Z,2.57
2018-06-28T06:26:25.312Z,2.50
2018-06-28T06:28:53.844Z,2.10
2018-06-28T06:31:22.468Z,2.20
2018-06-28T06:33:51.068Z,1.80
2018-06-28T06:36:19.701Z,1.97
2018-06-28T06:38:48.256Z,2.00
2018-06-28T06:41:16.849Z,2.20
2018-06-28T06:43:45.423Z,2.00
2018-06-28T06:46:14.004Z,2.10
2018-06-28T06:48:42.801Z,2.12
2018-06-28T06:51:11.269Z,2.00
2018-06-28T06:53:39.859Z,1.70
2018-06-28T06:56:08.516Z,2.00
2018-06-28T06:58:37.476Z,1.82
2018-06-28T07:01:06.451Z,1.80
2018-06-28T07:03:35.386Z,2.02
2018-06-28T07:06:04.561Z,3.37
2018-06-28T07:08:33.076Z,6.97
2018-06-28T07:11:01.641Z,2.22
2018-06-28T07:13:30.238Z,3.10
2018-06-28T07:15:59.057Z,3.67
2018-06-28T07:18:27.963Z,2.37
2018-06-28T07:20:56.841Z,2.75
2018-06-28T07:23:25.444Z,2.52
2018-06-28T07:25:54.246Z,2.00
2018-06-28T07:28:22.823Z,2.45
2018-06-28T07:30:51.512Z,2.08
2018-06-28T07:33:20.296Z,2.40
2018-06-28T07:35:49.183Z,5.97
2018-06-28T07:38:18.026Z,3.05
2018-06-28T07:40:46.909Z,2.08
2018-06-28T07:43:15.769Z,3.55
2018-06-28T07:45:44.621Z,2.50
2018-06-28T07:48:13.494Z,2.50
2018-06-28T07:50:42.427Z,2.25
2018-06-28T07:53:11.507Z,2.00
2018-06-28T07:55:40.030Z,1.95
2018-06-28T07:58:08.401Z,2.10
2018-06-28T08:00:36.977Z,2.20
2018-06-28T08:03:05.592Z,1.87
2018-06-28T08:05:34.212Z,1.70
2018-06-28T08:08:02.827Z,2.10
2018-06-28T08:10:31.386Z,1.80
2018-06-28T08:12:59.941Z,2.08
2018-06-28T08:15:28.542Z,1.90
2018-06-28T08:17:57.116Z,2.02
2018-06-28T08:20:26.476Z,2.05
2018-06-28T08:22:55.048Z,2.05
2018-06-28T08:25:23.616Z,1.65
2018-06-28T08:27:52.191Z,1.80
2018-06-28T08:30:20.729Z,1.90
2018-06-28T08:32:49.516Z,1.90
2018-06-28T08:35:18.484Z,1.82
2018-06-28T08:37:47.448Z,1.70
2018-06-28T08:40:17.681Z,1.70
2018-06-28T08:42:46.599Z,1.70
2018-06-28T08:45:15.583Z,1.87
2018-06-28T08:47:44.465Z,2.00
2018-06-28T08:50:13.336Z,2.00
2018-06-28T08:52:42.019Z,2.10
2018-06-28T08:55:10.641Z,2.22
2018-06-28T08:57:39.351Z,1.92
2018-06-28T09:00:09.086Z,1.82
2018-06-28T09:02:37.968Z,1.67
2018-06-28T09:05:06.846Z,1.62
2018-06-28T09:07:36.076Z,1.70
2018-06-28T09:10:05.084Z,1.80
2018-06-28T09:12:33.824Z,1.87
2018-06-28T09:15:02.383Z,1.60
2018-06-28T09:17:30.968Z,1.60
2018-06-28T09:19:59.504Z,2.00
2018-06-28T09:22:28.198Z,1.77
2018-06-28T09:24:56.723Z,1.70
2018-06-28T09:27:25.281Z,1.57
2018-06-28T09:29:53.873Z,1.65
2018-06-28T09:32:22.669Z,1.50
2018-06-28T09:34:51.581Z,1.60
2018-06-28T09:37:20.477Z,1.50
2018-06-28T09:39:49.384Z,1.55
2018-06-28T09:42:18.089Z,1.95
2018-06-28T09:44:46.763Z,1.70
2018-06-28T09:47:15.378Z,1.77
2018-06-28T09:49:43.961Z,1.80
2018-06-28T09:52:12.809Z,1.67
2018-06-28T09:54:41.771Z,1.42
2018-06-28T09:57:10.644Z,2.33
2018-06-28T09:59:39.726Z,1.42
2018-06-28T10:02:08.441Z,1.57
2018-06-28T10:04:37.143Z,1.45
2018-06-28T10:07:06.374Z,1.50
2018-06-28T10:09:35.504Z,1.62
2018-06-28T10:12:04.381Z,1.60
2018-06-28T10:14:33.323Z,1.67
2018-06-28T10:17:02.312Z,1.50
2018-06-28T10:19:31.262Z,1.40
2018-06-28T10:22:00.114Z,1.50
2018-06-28T10:24:28.956Z,1.47
2018-06-28T10:26:58.703Z,1.35
2018-06-28T10:29:27.561Z,1.20
2018-06-28T10:31:56.369Z,1.35
2018-06-28T10:34:25.271Z,1.30
2018-06-28T10:36:54.151Z,1.30
2018-06-28T10:39:23.140Z,1.37
2018-06-28T10:41:52.182Z,1.27
2018-06-28T10:44:21.239Z,1.50
2018-06-28T10:46:50.229Z,1.20
2018-06-28T10:49:19.110Z,1.50
2018-06-28T10:51:48.045Z,1.30
2018-06-28T10:54:16.894Z,1.70
2018-06-28T10:56:46.421Z,1.50
2018-06-28T10:59:15.089Z,1.40
2018-06-28T11:01:43.647Z,1.50
2018-06-28T11:04:12.208Z,1.45
2018-06-28T11:06:40.893Z,2.75
2018-06-28T11:09:11.548Z,1.70
2018-06-28T11:11:40.798Z,1.40
2018-06-28T11:14:09.669Z,1.50
2018-06-28T11:16:38.713Z,1.70
2018-06-28T11:19:07.372Z,1.60
2018-06-28T11:21:35.962Z,1.60
2018-06-28T11:24:04.727Z,1.40
2018-06-28T11:26:33.347Z,1.50
2018-06-28T11:29:01.966Z,1.40
2018-06-28T11:31:30.532Z,1.25
2018-06-28T11:33:59.125Z,1.50
2018-06-28T11:36:27.709Z,1.60
2018-06-28T11:38:56.294Z,1.70
2018-06-28T11:41:24.891Z,1.50
2018-06-28T11:43:53.606Z,1.50
2018-06-28T11:46:22.192Z,1.40
2018-06-28T11:48:50.869Z,1.60
2018-06-28T11:51:19.639Z,1.65
2018-06-28T11:53:48.267Z,1.90
2018-06-28T11:56:17.028Z,1.47
2018-06-28T11:58:45.873Z,1.40
2018-06-28T12:01:14.853Z,1.60
2018-06-28T12:03:43.684Z,1.67
2018-06-28T12:06:12.347Z,1.70
2018-06-28T12:08:40.951Z,1.60
2018-06-28T12:11:09.886Z,1.72
2018-06-28T12:13:38.479Z,1.60
2018-06-28T12:16:07.116Z,1.80
2018-06-28T12:18:35.776Z,1.90
2018-06-28T12:21:04.367Z,1.85
2018-06-28T12:23:34.704Z,1.87
2018-06-28T12:26:03.442Z,1.70
2018-06-28T12:28:32.512Z,1.87
2018-06-28T12:31:01.585Z,1.70
2018-06-28T12:33:30.636Z,1.70
2018-06-28T12:35:59.561Z,1.60
2018-06-28T12:38:29.916Z,1.80
2018-06-28T12:40:58.534Z,1.55
2018-06-28T12:43:29.245Z,1.90
2018-06-28T12:45:59.042Z,1.82
2018-06-28T12:48:27.765Z,2.00
2018-06-28T12:50:56.321Z,1.77
2018-06-28T12:53:24.949Z,6.08
2018-06-28T12:56:29.871Z,1.75
2018-06-28T12:59:01.302Z,1.72
2018-06-28T13:01:30.556Z,1.60
2018-06-28T13:03:59.439Z,1.60
2018-06-28T13:06:28.378Z,1.80
2018-06-28T13:08:57.946Z,1.55
2018-06-28T13:11:27.176Z,1.52
2018-06-28T13:13:56.053Z,1.70
2018-06-28T13:16:26.973Z,1.70
2018-06-28T13:18:55.881Z,1.80
2018-06-28T13:21:24.707Z,1.57
2018-06-28T13:23:53.600Z,1.60
2018-06-28T13:26:22.588Z,1.55
2018-06-28T13:28:51.464Z,1.72
2018-06-28T13:31:20.404Z,1.55
2018-06-28T13:33:49.359Z,1.50
2018-06-28T13:36:18.157Z,1.40
2018-06-28T13:38:47.292Z,1.30
2018-06-28T13:41:16.382Z,1.50
2018-06-28T13:43:45.116Z,1.57
2018-06-28T13:46:14.032Z,1.50
2018-06-28T13:48:42.977Z,1.30
2018-06-28T13:51:12.784Z,1.40
2018-06-28T13:53:41.775Z,1.30
2018-06-28T13:56:10.847Z,1.30
2018-06-28T13:58:39.546Z,1.37
2018-06-28T14:01:08.244Z,1.30
2018-06-28T14:03:37.653Z,1.65
2018-06-28T14:06:06.995Z,1.20
2018-06-28T14:08:35.801Z,1.25
2018-06-28T14:11:04.721Z,1.40
2018-06-28T14:13:33.626Z,1.50
2018-06-28T14:16:02.514Z,1.20
2018-06-28T14:18:31.439Z,1.32
2018-06-28T14:21:00.423Z,1.32
2018-06-28T14:23:29.433Z,1.20
2018-06-28T14:25:58.364Z,1.42
2018-06-28T14:28:27.371Z,1.42
2018-06-28T14:30:55.962Z,1.50
2018-06-28T14:33:24.916Z,1.35
2018-06-28T14:35:53.748Z,1.42
2018-06-28T14:38:23.606Z,1.45
2018-06-28T14:40:52.511Z,1.30
2018-06-28T14:43:22.286Z,1.50
2018-06-28T14:45:51.184Z,1.40
2018-06-28T14:48:20.096Z,1.47
2018-06-28T14:50:48.974Z,1.40
2018-06-28T14:53:17.821Z,1.42
2018-06-28T14:55:46.778Z,1.42
2018-06-28T14:58:15.630Z,1.40
2018-06-28T15:00:44.304Z,1.60
2018-06-28T15:03:12.915Z,1.50
2018-06-28T15:05:41.512Z,1.40
2018-06-28T15:08:10.137Z,1.62
2018-06-28T15:10:38.876Z,1.60
2018-06-28T15:13:08.938Z,1.30
2018-06-28T15:15:37.484Z,1.62
2018-06-28T15:18:06.087Z,1.57
2018-06-28T15:20:34.859Z,1.70
2018-06-28T15:23:03.810Z,1.80
2018-06-28T15:25:32.845Z,1.50
2018-06-28T15:28:01.874Z,2.90
2018-06-28T15:30:31.534Z,1.60
2018-06-28T15:33:00.506Z,1.60
2018-06-28T15:35:29.037Z,1.80
2018-06-28T15:37:58.404Z,1.65
2018-06-28T15:40:27.084Z,1.55
2018-06-28T15:42:55.863Z,1.42
2018-06-28T15:45:24.864Z,1.80
2018-06-28T15:47:53.749Z,1.90
2018-06-28T15:50:22.636Z,1.90
2018-06-28T15:52:51.536Z,2.00
2018-06-28T15:55:20.366Z,1.90
2018-06-28T15:57:49.248Z,2.20
2018-06-28T16:00:18.142Z,2.30
2018-06-28T16:02:47.047Z,2.20
2018-06-28T16:05:15.941Z,2.30
2018-06-28T16:07:44.838Z,1.82
2018-06-28T16:10:13.703Z,2.00
2018-06-28T16:12:42.573Z,2.30
2018-06-28T16:15:11.443Z,2.30
2018-06-28T16:17:44.531Z,2.25
2018-06-28T16:20:13.607Z,2.10
2018-06-28T16:22:42.599Z,1.90
2018-06-28T16:25:11.504Z,2.10
2018-06-28T16:27:40.331Z,1.97
2018-06-28T16:30:09.207Z,2.83
2018-06-28T16:32:37.936Z,2.87
2018-06-28T16:35:06.556Z,2.30
2018-06-28T16:37:35.235Z,1.80
2018-06-28T16:40:03.941Z,1.80
2018-06-28T16:42:32.597Z,2.08
2018-06-28T16:45:01.230Z,2.40
2018-06-28T16:47:29.827Z,2.10
2018-06-28T16:49:58.445Z,1.97
2018-06-28T16:52:27.371Z,2.03
2018-06-28T16:54:56.296Z,2.10
2018-06-28T16:57:25.139Z,2.30
2018-06-28T16:59:54.124Z,2.20
2018-06-28T17:02:22.818Z,1.97
2018-06-28T17:04:51.414Z,2.80
2018-06-28T17:07:20.616Z,2.20
2018-06-28T17:09:49.481Z,2.30
2018-06-28T17:12:19.147Z,2.77
2018-06-28T17:14:48.049Z,2.80
2018-06-28T17:17:17.815Z,2.70
2018-06-28T17:19:46.695Z,2.83
2018-06-28T17:22:15.787Z,2.50
2018-06-28T17:24:45.624Z,2.47
2018-06-28T17:27:14.486Z,2.27
2018-06-28T17:29:43.388Z,2.27
2018-06-28T17:32:12.309Z,2.53
2018-06-28T17:34:41.419Z,2.97
2018-06-28T17:37:10.302Z,2.37
2018-06-28T17:39:39.152Z,2.10
2018-06-28T17:42:07.978Z,2.50
2018-06-28T17:44:36.815Z,2.30
2018-06-28T17:47:06.017Z,2.60
2018-06-28T17:49:35.071Z,2.50
2018-06-28T17:52:03.718Z,3.13
2018-06-28T17:54:32.314Z,2.47
2018-06-28T17:57:01.624Z,3.20
2018-06-28T17:59:30.249Z,2.97
2018-06-28T18:01:59.769Z,3.10
2018-06-28T18:04:28.699Z,2.80
2018-06-28T18:06:57.577Z,2.67
2018-06-28T18:09:26.632Z,2.47
2018-06-28T18:11:55.454Z,2.47
2018-06-28T18:14:24.354Z,2.50
2018-06-28T18:16:53.269Z,2.77
2018-06-28T18:19:22.233Z,2.47
2018-06-28T18:21:51.135Z,2.43
2018-06-28T18:24:19.935Z,2.40
2018-06-28T18:26:48.531Z,2.57
2018-06-28T18:29:17.099Z,2.40
2018-06-28T18:31:45.628Z,2.63
2018-06-28T18:34:14.184Z,2.80
2018-06-28T18:36:42.921Z,2.60
2018-06-28T18:39:11.810Z,2.50
2018-06-28T18:41:40.702Z,2.57
2018-06-28T18:44:09.702Z,2.73
2018-06-28T18:46:38.517Z,2.60
2018-06-28T18:49:07.416Z,2.70
2018-06-28T18:51:36.290Z,2.40
2018-06-28T18:54:05.223Z,2.60
2018-06-28T18:56:34.538Z,2.63
2018-06-28T18:59:03.463Z,2.23
2018-06-28T19:01:32.354Z,2.33
2018-06-28T19:04:02.048Z,2.57
2018-06-28T19:06:30.762Z,2.60
2018-06-28T19:08:59.391Z,2.50
2018-06-28T19:11:28.404Z,3.00
2018-06-28T19:14:02.710Z,2.60
2018-06-28T19:16:39.173Z,2.57
2018-06-28T19:19:07.921Z,2.57
2018-06-28T19:21:42.181Z,2.50
2018-06-28T19:24:11.758Z,3.03
2018-06-28T19:26:40.476Z,2.47
2018-06-28T19:29:16.152Z,2.50
2018-06-28T19:31:50.594Z,2.70
2018-06-28T19:34:19.356Z,2.67
2018-06-28T19:36:48.136Z,2.90
2018-06-28T19:39:22.624Z,2.97
2018-06-28T19:41:57.114Z,2.93
2018-06-28T19:44:26.119Z,2.93
2018-06-28T19:46:55.191Z,2.67
2018-06-28T19:49:29.287Z,2.50
2018-06-28T19:52:03.777Z,2.50
2018-06-28T19:54:33.756Z,2.60
2018-06-28T19:57:02.816Z,2.53
2018-06-28T19:59:36.326Z,2.60
2018-06-28T20:02:10.954Z,2.50
2018-06-28T20:04:45.360Z,2.40
2018-06-28T20:07:14.701Z,2.40
2018-06-28T20:09:43.731Z,2.60
2018-06-28T20:12:17.966Z,2.67
2018-06-28T20:14:52.027Z,2.70
2018-06-28T20:17:26.859Z,2.60
2018-06-28T20:20:02.776Z,2.63
2018-06-28T20:22:31.726Z,2.90
2018-06-28T20:25:01.336Z,2.90
2018-06-28T20:27:35.629Z,2.63
2018-06-28T20:30:11.148Z,2.90
2018-06-28T20:32:45.342Z,2.77
2018-06-28T20:35:14.669Z,3.00
2018-06-28T20:37:43.754Z,3.17
2018-06-28T20:40:13.002Z,2.90
2018-06-28T20:42:44.314Z,2.80
2018-06-28T20:45:13.528Z,3.10
2018-06-28T20:47:42.239Z,2.87
2018-06-28T20:50:10.917Z,2.90
2018-06-28T20:52:39.545Z,3.10
2018-06-28T20:55:08.184Z,3.00
2018-06-28T20:57:37.856Z,3.20
2018-06-28T21:00:08.444Z,3.17
2018-06-28T21:02:37.297Z,2.97
2018-06-28T21:05:05.979Z,2.93
2018-06-28T21:07:34.704Z,2.90
2018-06-28T21:10:04.569Z,3.17
2018-06-28T21:12:34.087Z,2.90
2018-06-28T21:15:03.102Z,2.80
2018-06-28T21:17:32.449Z,3.00
2018-06-28T21:20:01.232Z,2.60
2018-06-28T21:22:29.874Z,3.00
2018-06-28T21:24:58.494Z,2.80
2018-06-28T21:27:28.688Z,3.13
2018-06-28T21:29:59.011Z,3.13
2018-06-28T21:32:27.716Z,2.70
2018-06-28T21:34:56.451Z,3.13
2018-06-28T21:37:25.287Z,2.90
2018-06-28T21:39:54.547Z,3.27
2018-06-28T21:42:23.445Z,3.40
2018-06-28T21:44:52.446Z,3.10
2018-06-28T21:47:21.386Z,3.33
2018-06-28T21:49:50.339Z,3.23
2018-06-28T21:52:19.317Z,3.20
2018-06-28T21:54:48.252Z,3.10
2018-06-28T21:57:17.430Z,2.70
2018-06-28T21:59:46.436Z,3.40
2018-06-28T22:02:15.389Z,3.10
2018-06-28T22:04:44.354Z,3.53
2018-06-28T22:07:13.316Z,3.00
2018-06-28T22:09:42.434Z,3.33
2018-06-28T22:12:11.359Z,3.10
2018-06-28T22:14:40.291Z,3.27
2018-06-28T22:17:09.266Z,3.40
2018-06-28T22:19:38.298Z,3.23
2018-06-28T22:22:07.366Z,3.47
2018-06-28T22:24:36.296Z,3.17
2018-06-28T22:27:05.294Z,3.47
2018-06-28T22:29:35.215Z,3.40
2018-06-28T22:32:04.159Z,3.77
2018-06-28T22:34:33.056Z,3.40
2018-06-28T22:37:01.775Z,3.50
2018-06-28T22:39:30.336Z,3.43
2018-06-28T22:41:58.965Z,3.80
2018-06-28T22:44:27.536Z,3.53
2018-06-28T22:46:56.315Z,3.30
2018-06-28T22:49:25.805Z,3.60
2018-06-28T22:51:54.726Z,3.50
2018-06-28T22:54:23.588Z,3.40
2018-06-28T22:56:52.595Z,3.30
2018-06-28T22:59:21.169Z,4.20
2018-06-28T23:01:49.727Z,4.17
2018-06-28T23:04:18.258Z,3.80
2018-06-28T23:06:46.784Z,3.57
2018-06-28T23:09:15.336Z,3.50
2018-06-28T23:11:43.896Z,3.90
2018-06-28T23:14:12.444Z,3.40
2018-06-28T23:16:40.987Z,3.40
2018-06-28T23:19:09.602Z,3.20
2018-06-28T23:21:38.193Z,3.23
2018-06-28T23:24:06.816Z,3.67
2018-06-28T23:26:35.373Z,3.70
2018-06-28T23:29:04.046Z,3.50
2018-06-28T23:31:32.599Z,3.97
2018-06-28T23:34:01.727Z,4.07
2018-06-28T23:36:30.305Z,4.63
2018-06-28T23:38:58.854Z,4.73
2018-06-28T23:41:27.414Z,4.63
2018-06-28T23:43:55.969Z,5.00
2018-06-28T23:46:24.724Z,4.40
2018-06-28T23:48:53.293Z,4.43
2018-06-28T23:51:22.194Z,4.93
2018-06-28T23:53:51.111Z,4.30
2018-06-28T23:56:19.766Z,4.77
2018-06-28T23:58:48.344Z,4.70
